Etusivu
METAR-TAF:

METAR-TAF

Lentoasemat :

Ljungbyhed, Ruotsi

Leveyspiiri: 56-04N, Pituuspiiri: 013-12E, korkeus merenpinnasta: 43 m

Tämänhetkinen sää

Tämä raportti tehtiin 24 minuuttia sitten, kello 11.20 UTC
Tuuli 21 kn lännestä/luoteesta
Lämpötila 11°C
Kosteus 66%
Ilmanpaine 1023 hPa
Näkyvyys 10 km tai enemmän
Hajonneita pilviä 3000 ft:n korkeudessa

METAR: ESTL 221120Z 29021KT 9999 BKN030 11/05 Q1023

Aika: 13:44 (11:44 UTC)

Sääennuste

Tämä raportti tehtiin 30 minuuttia sitten, kello 11.14 UTC
Ennuste voimassa 22. päivästä klo 12 UTC - 22. päivään klo 15 UTC
Tuuli 18 kn lännestä/luoteesta
Näkyvyys 10 km tai enemmän
Hajanaisia pilviä 3000 ft:n korkeudessa
Ajoittain
22. päivästä klo 12 UTC - 22. päivään klo 15 UTC
Tuuli 22 kn lännestä/luoteesta puuskistuen 32 kn:hen

TAF: ESTL 221114Z 2212/2215 29018KT 9999 SCT030 TEMPO 2212/2215 30022G32KT

Säähavainnot ja -ennusteet yli 4000 lentoasemalta (METAR- ja TAF-raportit).

Käytössä olevat sääasemat on merkitty karttaan keltaisilla ja punaisilla pisteillä.

Aseta hiiri pisteen päälle nähdäksesi sääaseman nimen.

Klikkaa sitten nähdäksesi säähavainnot ja -ennusteet.

Kartan vaihtaminen: klikkaa mustalla rastilla varustettuja vihreitä pisteitä, niin voit zoomata sisään; viivalla varustettua vihreää pistettä, niin voit zoomata ulos tai vihreitä nuolia, niin pääset viereisille kartoille.


METAR-TAF: